createdAt,value
2023-02-09T00:02:20.215Z,19.53
2023-02-09T00:04:48.717Z,20.27
2023-02-09T00:07:17.243Z,20.53
2023-02-09T00:09:45.699Z,19.60
2023-02-09T00:12:31.670Z,20.10
2023-02-09T00:15:00.146Z,20.00
2023-02-09T00:17:30.079Z,21.80
2023-02-09T00:19:58.546Z,18.80
2023-02-09T00:22:27.152Z,19.40
2023-02-09T00:24:57.311Z,18.50
2023-02-09T00:27:25.967Z,18.17
2023-02-09T00:29:54.383Z,19.47
2023-02-09T00:32:22.921Z,20.20
2023-02-09T00:34:52.762Z,23.03
2023-02-09T00:37:22.242Z,20.87
2023-02-09T00:39:50.746Z,24.60
2023-02-09T00:42:19.512Z,22.33
2023-02-09T00:44:47.940Z,19.43
2023-02-09T00:47:16.713Z,19.60
2023-02-09T00:49:45.232Z,17.93
2023-02-09T00:52:15.123Z,13.63
2023-02-09T00:54:43.539Z,14.80
2023-02-09T00:57:12.159Z,12.60
2023-02-09T00:59:42.543Z,11.23
2023-02-09T01:02:11.091Z,10.77
2023-02-09T01:04:40.770Z,11.20
2023-02-09T01:07:09.638Z,10.80
2023-02-09T01:09:39.497Z,10.17
2023-02-09T01:12:09.101Z,10.83
2023-02-09T01:14:39.949Z,10.60
2023-02-09T01:17:08.628Z,11.40
2023-02-09T01:19:37.208Z,11.30
2023-02-09T01:22:06.267Z,10.37
2023-02-09T01:24:34.767Z,11.07
2023-02-09T01:27:04.891Z,10.83
2023-02-09T01:29:33.342Z,10.30
2023-02-09T01:32:02.191Z,11.30
2023-02-09T01:34:30.778Z,10.27
2023-02-09T01:36:59.438Z,10.97
2023-02-09T01:39:27.851Z,10.43
2023-02-09T01:41:56.757Z,11.30
2023-02-09T01:45:06.343Z,11.07
2023-02-09T01:47:43.010Z,10.63
2023-02-09T01:50:12.229Z,10.53
2023-02-09T01:52:42.132Z,10.80
2023-02-09T01:55:15.147Z,11.47
2023-02-09T01:57:49.179Z,10.77
2023-02-09T02:00:22.654Z,10.10
2023-02-09T02:02:57.290Z,11.07
2023-02-09T02:05:26.970Z,11.00
2023-02-09T02:08:02.267Z,11.10
2023-02-09T02:10:30.971Z,11.10
2023-02-09T02:12:59.801Z,10.30
2023-02-09T02:15:41.624Z,11.13
2023-02-09T02:18:21.506Z,11.53
2023-02-09T02:21:26.745Z,11.60
2023-02-09T02:24:18.402Z,11.00
2023-02-09T02:26:56.393Z,11.23
2023-02-09T02:30:05.352Z,11.50
2023-02-09T02:32:53.773Z,11.80
2023-02-09T02:35:30.523Z,12.77
2023-02-09T02:38:08.796Z,11.30
2023-02-09T02:40:47.505Z,11.90
2023-02-09T02:43:25.218Z,11.40
2023-02-09T02:46:01.123Z,11.50
2023-02-09T02:48:36.897Z,10.80
2023-02-09T02:51:10.562Z,11.60
2023-02-09T02:53:43.419Z,11.07
2023-02-09T02:56:16.584Z,11.17
2023-02-09T02:58:47.329Z,12.10
2023-02-09T03:01:22.750Z,11.40
2023-02-09T03:03:54.784Z,12.93
2023-02-09T03:06:23.445Z,12.77
2023-02-09T03:08:53.817Z,12.00
2023-02-09T03:11:24.170Z,11.33
2023-02-09T03:14:12.906Z,10.90
2023-02-09T03:16:46.750Z,12.13
2023-02-09T03:19:26.451Z,11.17
2023-02-09T03:22:00.874Z,11.47
2023-02-09T03:24:37.342Z,11.60
2023-02-09T03:27:15.685Z,11.90
2023-02-09T03:29:46.727Z,10.93
2023-02-09T03:32:16.308Z,13.47
2023-02-09T03:34:46.882Z,12.73
2023-02-09T03:37:15.501Z,13.10
2023-02-09T03:39:44.023Z,11.90
2023-02-09T03:42:12.659Z,12.30
2023-02-09T03:44:41.164Z,11.43
2023-02-09T03:47:10.966Z,11.90
2023-02-09T03:49:41.073Z,11.93
2023-02-09T03:52:13.460Z,11.50
2023-02-09T03:54:42.167Z,11.27
2023-02-09T03:57:11.433Z,11.93
2023-02-09T03:59:39.996Z,12.43
2023-02-09T04:02:10.268Z,11.43
2023-02-09T04:04:38.844Z,12.83
2023-02-09T04:07:07.503Z,12.07
2023-02-09T04:09:38.479Z,10.97
2023-02-09T04:12:07.379Z,12.23
2023-02-09T04:14:35.894Z,12.17
2023-02-09T04:17:04.549Z,12.17
2023-02-09T04:19:33.066Z,12.90
2023-02-09T04:22:02.127Z,12.27
2023-02-09T04:24:30.702Z,11.70
2023-02-09T04:27:00.681Z,11.97
2023-02-09T04:29:29.531Z,12.50
2023-02-09T04:31:58.110Z,12.53
2023-02-09T04:34:26.885Z,11.33
2023-02-09T04:36:55.407Z,12.97
2023-02-09T04:39:23.928Z,12.23
2023-02-09T04:41:52.618Z,12.67
2023-02-09T04:44:22.519Z,13.53
2023-02-09T04:46:51.052Z,12.87
2023-02-09T04:49:19.682Z,12.43
2023-02-09T04:51:48.126Z,13.50
2023-02-09T04:54:16.837Z,12.73
2023-02-09T04:56:45.572Z,13.70
2023-02-09T04:59:31.410Z,12.13
2023-02-09T05:02:01.399Z,12.60
2023-02-09T05:04:30.707Z,11.70
2023-02-09T05:06:59.215Z,12.90
2023-02-09T05:09:27.934Z,12.80
2023-02-09T05:11:56.513Z,13.17
2023-02-09T05:14:25.212Z,10.77
2023-02-09T05:16:53.893Z,12.77
2023-02-09T05:19:23.829Z,14.00
2023-02-09T05:21:52.473Z,13.43
2023-02-09T05:24:21.044Z,12.30
2023-02-09T05:26:49.672Z,13.27
2023-02-09T05:29:18.196Z,12.80
2023-02-09T05:31:46.741Z,12.37
2023-02-09T05:34:15.340Z,13.23
2023-02-09T05:36:45.123Z,13.20
2023-02-09T05:39:13.632Z,12.70
2023-02-09T05:41:59.254Z,13.97
2023-02-09T05:44:27.787Z,13.90
2023-02-09T05:46:56.198Z,13.90
2023-02-09T05:49:24.744Z,12.90
2023-02-09T05:51:54.557Z,12.10
2023-02-09T05:54:23.260Z,12.87
2023-02-09T05:56:51.801Z,13.33
2023-02-09T05:59:20.518Z,13.83
2023-02-09T06:01:48.939Z,13.93
2023-02-09T06:04:17.763Z,13.77
2023-02-09T06:06:46.174Z,14.60
2023-02-09T06:09:16.282Z,13.07
2023-02-09T06:11:44.687Z,13.20
2023-02-09T06:14:13.216Z,14.97
2023-02-09T06:16:41.961Z,13.43
2023-02-09T06:19:14.946Z,14.30
2023-02-09T06:21:43.612Z,14.50
2023-02-09T06:24:13.099Z,13.70
2023-02-09T06:26:43.202Z,13.57
2023-02-09T06:29:11.941Z,15.33
2023-02-09T06:31:41.986Z,14.13
2023-02-09T06:34:11.047Z,15.17
2023-02-09T06:36:39.523Z,15.13
2023-02-09T06:39:09.310Z,14.13
2023-02-09T06:41:38.607Z,14.20
2023-02-09T06:44:08.764Z,14.30
2023-02-09T06:46:37.450Z,13.90
2023-02-09T06:49:06.271Z,14.90
2023-02-09T06:51:34.879Z,14.30
2023-02-09T06:54:03.507Z,13.67
2023-02-09T06:56:32.073Z,15.00
2023-02-09T06:59:00.671Z,14.20
2023-02-09T07:01:31.805Z,14.57
2023-02-09T07:04:00.342Z,13.63
2023-02-09T07:06:29.088Z,14.17
2023-02-09T07:08:57.744Z,15.43
2023-02-09T07:11:26.331Z,14.20
2023-02-09T07:13:55.030Z,14.73
2023-02-09T07:16:23.771Z,14.60
2023-02-09T07:18:53.541Z,14.33
2023-02-09T07:21:22.743Z,13.63
2023-02-09T07:23:52.617Z,14.63
2023-02-09T07:26:21.386Z,15.30
2023-02-09T07:28:49.775Z,13.97
2023-02-09T07:31:18.750Z,16.00
2023-02-09T07:33:47.605Z,14.90
2023-02-09T07:36:19.349Z,16.87
2023-02-09T07:38:48.004Z,16.20
2023-02-09T07:41:18.507Z,14.67
2023-02-09T07:43:48.129Z,13.40
2023-02-09T07:46:17.895Z,14.30
2023-02-09T07:48:46.796Z,13.93
2023-02-09T07:51:17.610Z,13.53
2023-02-09T07:53:46.239Z,15.00
2023-02-09T07:56:14.752Z,14.50
2023-02-09T07:58:43.445Z,13.50
2023-02-09T08:01:14.054Z,13.93
2023-02-09T08:03:44.399Z,14.50
2023-02-09T08:06:20.130Z,13.87
2023-02-09T08:08:52.035Z,14.50
2023-02-09T08:11:25.414Z,16.30
2023-02-09T08:13:56.645Z,14.07
2023-02-09T08:16:28.969Z,15.53
2023-02-09T08:19:00.345Z,15.00
2023-02-09T08:21:30.194Z,15.20
2023-02-09T08:24:01.088Z,16.23
2023-02-09T08:26:30.547Z,16.40
2023-02-09T08:28:59.797Z,16.13
2023-02-09T08:31:28.466Z,13.73
2023-02-09T08:33:56.917Z,15.17
2023-02-09T08:36:25.589Z,15.27
2023-02-09T08:38:54.096Z,13.70
2023-02-09T08:41:24.038Z,14.43
2023-02-09T08:43:52.751Z,14.40
2023-02-09T08:46:21.377Z,13.27
2023-02-09T08:48:50.285Z,14.23
2023-02-09T08:51:18.821Z,13.53
2023-02-09T08:53:52.650Z,14.80
2023-02-09T08:56:23.535Z,14.70
2023-02-09T08:58:53.020Z,13.77
2023-02-09T09:01:22.310Z,15.07
2023-02-09T09:03:50.953Z,15.30
2023-02-09T09:06:19.714Z,14.73
2023-02-09T09:08:48.380Z,15.60
2023-02-09T09:11:17.474Z,15.50
2023-02-09T09:13:48.369Z,15.20
2023-02-09T09:16:18.089Z,14.87
2023-02-09T09:18:46.569Z,16.17
2023-02-09T09:21:17.409Z,15.60
2023-02-09T09:23:47.047Z,15.03
2023-02-09T09:26:15.555Z,16.10
2023-02-09T09:28:44.130Z,14.57
2023-02-09T09:31:16.602Z,14.83
2023-02-09T09:33:47.819Z,14.33
2023-02-09T09:36:16.325Z,15.33
2023-02-09T09:38:45.075Z,14.17
2023-02-09T09:41:23.820Z,14.43
2023-02-09T09:43:53.487Z,14.23
2023-02-09T09:46:29.356Z,14.70
2023-02-09T09:48:59.363Z,13.00
2023-02-09T09:51:38.031Z,14.13
2023-02-09T09:54:12.583Z,14.70
2023-02-09T09:56:42.247Z,15.50
2023-02-09T09:59:17.829Z,15.13
2023-02-09T10:01:48.935Z,15.07
2023-02-09T10:04:17.809Z,13.67
2023-02-09T10:06:48.698Z,13.90
2023-02-09T10:09:28.072Z,14.57
2023-02-09T10:12:04.717Z,13.83
2023-02-09T10:14:33.267Z,15.00
2023-02-09T10:17:03.167Z,14.77
2023-02-09T10:19:32.823Z,14.57
2023-02-09T10:22:01.307Z,14.77
2023-02-09T10:24:32.170Z,14.83
2023-02-09T10:27:08.362Z,14.33
2023-02-09T10:29:37.618Z,14.90
2023-02-09T10:32:15.640Z,14.03
2023-02-09T10:34:48.341Z,14.23
2023-02-09T10:37:29.942Z,15.07
2023-02-09T10:40:09.900Z,13.00
2023-02-09T10:42:42.034Z,13.93
2023-02-09T10:45:17.095Z,13.50
2023-02-09T10:47:59.387Z,15.73
2023-02-09T10:50:28.070Z,15.00
2023-02-09T10:52:59.552Z,14.00
2023-02-09T10:55:35.404Z,14.70
2023-02-09T10:58:13.606Z,15.40
2023-02-09T11:00:50.093Z,16.00
2023-02-09T11:03:21.961Z,16.00
2023-02-09T11:05:59.944Z,16.00
2023-02-09T11:08:43.033Z,14.47
2023-02-09T11:11:30.288Z,15.67
2023-02-09T11:13:59.046Z,14.63
2023-02-09T11:17:05.553Z,15.90
2023-02-09T11:20:03.890Z,14.97
2023-02-09T11:22:56.283Z,16.40
2023-02-09T11:25:28.773Z,13.87
2023-02-09T11:28:19.807Z,14.80
2023-02-09T11:31:24.104Z,13.87
2023-02-09T11:34:04.891Z,15.90
2023-02-09T11:36:50.451Z,17.00
2023-02-09T11:39:25.298Z,15.60
2023-02-09T11:42:19.834Z,14.30
2023-02-09T11:44:54.250Z,14.77
2023-02-09T11:47:29.290Z,15.73
2023-02-09T11:50:03.098Z,15.80
2023-02-09T11:52:37.526Z,17.40
2023-02-09T11:55:20.779Z,16.40
2023-02-09T11:57:55.787Z,16.50
2023-02-09T12:00:27.763Z,15.93
2023-02-09T12:03:01.661Z,15.50
2023-02-09T12:05:30.546Z,15.70
2023-02-09T12:08:20.722Z,15.50
2023-02-09T12:10:53.018Z,14.83
2023-02-09T12:13:31.357Z,15.10
2023-02-09T12:16:03.537Z,17.27
2023-02-09T12:18:36.538Z,15.07
2023-02-09T12:21:06.986Z,14.83
2023-02-09T12:23:37.946Z,16.47
2023-02-09T12:26:35.400Z,16.40
2023-02-09T12:29:26.466Z,16.03
2023-02-09T12:32:25.600Z,14.80
2023-02-09T12:34:56.441Z,13.67
2023-02-09T12:37:28.006Z,14.63
2023-02-09T12:40:36.152Z,14.50
2023-02-09T12:43:29.368Z,15.23
2023-02-09T12:46:23.665Z,15.90
2023-02-09T12:49:08.752Z,13.20
2023-02-09T12:51:51.232Z,13.47
2023-02-09T12:54:36.199Z,11.83
2023-02-09T12:57:54.202Z,11.77
2023-02-09T13:00:58.164Z,12.77
2023-02-09T13:03:27.838Z,12.40
2023-02-09T13:06:00.895Z,14.30
2023-02-09T13:08:37.946Z,13.47
2023-02-09T13:11:14.512Z,13.00
2023-02-09T13:13:50.686Z,13.87
2023-02-09T13:16:50.432Z,13.07
2023-02-09T13:19:47.048Z,14.27
2023-02-09T13:22:36.604Z,13.93
2023-02-09T13:25:15.503Z,14.93
2023-02-09T13:27:48.623Z,14.60
2023-02-09T13:30:27.726Z,13.90
2023-02-09T13:33:05.162Z,15.60
2023-02-09T13:35:38.513Z,15.30
2023-02-09T13:38:17.056Z,16.03
2023-02-09T13:40:50.361Z,14.43
2023-02-09T13:43:22.086Z,13.20
2023-02-09T13:45:52.413Z,15.27
2023-02-09T13:48:27.424Z,14.00
2023-02-09T13:50:58.190Z,14.13
2023-02-09T13:53:28.984Z,14.60
2023-02-09T13:55:59.691Z,14.20
2023-02-09T13:58:31.399Z,14.87
2023-02-09T14:01:04.065Z,13.70
2023-02-09T14:03:42.688Z,14.73
2023-02-09T14:06:24.287Z,13.63
2023-02-09T14:08:53.979Z,14.00
2023-02-09T14:11:41.553Z,13.80
2023-02-09T14:14:15.980Z,13.97
2023-02-09T14:16:53.006Z,15.07
2023-02-09T14:19:32.277Z,14.00
2023-02-09T14:22:01.178Z,14.37
2023-02-09T14:24:40.762Z,13.53
2023-02-09T14:27:22.422Z,13.10
2023-02-09T14:29:52.074Z,12.93
2023-02-09T14:32:32.223Z,12.80
2023-02-09T14:35:16.283Z,12.70
2023-02-09T14:37:45.572Z,13.23
2023-02-09T14:40:25.150Z,14.87
2023-02-09T14:43:02.631Z,13.87
2023-02-09T14:45:43.407Z,13.73
2023-02-09T14:48:19.744Z,14.40
2023-02-09T14:50:50.849Z,15.27
2023-02-09T14:53:19.964Z,15.60
2023-02-09T14:55:49.031Z,13.87
2023-02-09T14:58:23.662Z,14.60
2023-02-09T15:00:54.270Z,15.63
2023-02-09T15:03:23.278Z,14.00
2023-02-09T15:05:56.477Z,15.87
2023-02-09T15:08:27.101Z,15.40
2023-02-09T15:10:58.468Z,15.10
2023-02-09T15:13:29.207Z,16.13
2023-02-09T15:15:57.898Z,14.90
2023-02-09T15:18:27.757Z,13.70
2023-02-09T15:20:59.622Z,15.07
2023-02-09T15:23:28.174Z,14.37
2023-02-09T15:25:56.749Z,15.43
2023-02-09T15:28:30.182Z,14.57
2023-02-09T15:31:00.228Z,14.67
2023-02-09T15:33:30.686Z,14.93
2023-02-09T15:36:00.714Z,14.90
2023-02-09T15:38:29.461Z,15.37
2023-02-09T15:41:16.046Z,15.97
2023-02-09T15:44:01.249Z,14.50
2023-02-09T15:46:47.338Z,15.60
2023-02-09T15:49:15.967Z,15.20
2023-02-09T15:51:45.834Z,17.50
2023-02-09T15:54:18.845Z,15.90
2023-02-09T15:56:47.986Z,17.97
2023-02-09T15:59:19.605Z,16.00
2023-02-09T16:01:48.849Z,19.40
2023-02-09T16:04:17.518Z,16.20
2023-02-09T16:06:50.980Z,16.63
2023-02-09T16:09:21.732Z,17.60
2023-02-09T16:11:50.846Z,16.63
2023-02-09T16:14:21.179Z,17.00
2023-02-09T16:16:50.221Z,17.77
2023-02-09T16:19:19.170Z,16.90
2023-02-09T16:21:51.780Z,17.03
2023-02-09T16:24:27.627Z,17.10
2023-02-09T16:26:56.432Z,17.30
2023-02-09T16:29:25.983Z,17.83
2023-02-09T16:31:54.850Z,17.53
2023-02-09T16:34:23.323Z,17.93
2023-02-09T16:36:53.333Z,19.07
2023-02-09T16:39:23.515Z,18.23
2023-02-09T16:41:52.800Z,17.83
2023-02-09T16:44:24.216Z,17.40
2023-02-09T16:46:55.376Z,18.00
2023-02-09T16:49:35.312Z,18.20
2023-02-09T16:52:11.891Z,17.60
2023-02-09T16:54:44.779Z,17.53
2023-02-09T16:57:15.161Z,18.20
2023-02-09T16:59:43.719Z,18.77
2023-02-09T17:02:39.989Z,17.10
2023-02-09T17:05:18.684Z,18.33
2023-02-09T17:07:55.168Z,18.50
2023-02-09T17:10:26.836Z,18.90
2023-02-09T17:12:55.361Z,19.23
2023-02-09T17:15:31.237Z,19.50
2023-02-09T17:18:02.890Z,20.07
2023-02-09T17:20:37.088Z,18.87
2023-02-09T17:23:07.121Z,17.90
2023-02-09T17:25:36.298Z,19.93
2023-02-09T17:28:05.751Z,18.77
2023-02-09T17:30:35.394Z,20.93
2023-02-09T17:33:06.448Z,20.50
2023-02-09T17:36:17.467Z,20.07
2023-02-09T17:38:33.165Z,20.77
2023-02-09T17:41:03.528Z,19.10
2023-02-09T17:43:32.361Z,19.53
2023-02-09T17:46:01.507Z,19.77
2023-02-09T17:48:30.260Z,20.60
2023-02-09T17:51:00.587Z,20.27
2023-02-09T17:53:35.125Z,21.43
2023-02-09T17:56:04.766Z,19.20
2023-02-09T17:58:33.359Z,18.70
2023-02-09T18:01:02.058Z,19.77
2023-02-09T18:03:30.640Z,20.93
2023-02-09T18:06:01.742Z,19.80
2023-02-09T18:08:32.164Z,20.37
2023-02-09T18:11:01.429Z,21.47
2023-02-09T18:13:29.948Z,19.87
2023-02-09T18:15:58.544Z,21.33
2023-02-09T18:18:26.991Z,21.60
2023-02-09T18:20:55.530Z,21.53
2023-02-09T18:23:24.001Z,21.70
2023-02-09T18:25:53.978Z,22.50
2023-02-09T18:28:22.391Z,22.13
2023-02-09T18:30:51.018Z,23.27
2023-02-09T18:33:19.686Z,21.83
2023-02-09T18:35:48.357Z,24.40
2023-02-09T18:38:17.178Z,22.90
2023-02-09T18:40:45.754Z,21.73
2023-02-09T18:43:16.581Z,21.17
2023-02-09T18:45:45.732Z,22.23
2023-02-09T18:48:14.737Z,23.40
2023-02-09T18:50:43.294Z,22.43
2023-02-09T18:53:13.004Z,23.17
2023-02-09T18:55:41.769Z,25.90
2023-02-09T18:58:10.491Z,22.73
2023-02-09T19:00:40.963Z,25.20
2023-02-09T19:03:09.391Z,27.30
2023-02-09T19:05:37.868Z,27.10
2023-02-09T19:08:07.490Z,25.90
2023-02-09T19:10:36.157Z,25.47
2023-02-09T19:13:05.722Z,27.57
2023-02-09T19:15:35.418Z,28.03
2023-02-09T19:18:05.561Z,26.60
2023-02-09T19:20:35.136Z,24.47
2023-02-09T19:23:04.502Z,24.37
2023-02-09T19:25:33.227Z,25.77
2023-02-09T19:28:01.787Z,24.90
2023-02-09T19:30:30.253Z,24.30
2023-02-09T19:33:00.196Z,25.03
2023-02-09T19:35:30.183Z,25.03
2023-02-09T19:37:59.109Z,26.20
2023-02-09T19:40:35.565Z,26.17
2023-02-09T19:43:04.467Z,26.17
2023-02-09T19:45:36.556Z,25.50
2023-02-09T19:48:05.761Z,24.92
2023-02-09T19:50:36.738Z,24.70
2023-02-09T19:53:06.141Z,24.40
2023-02-09T19:55:34.896Z,23.70
2023-02-09T19:58:04.353Z,24.77
2023-02-09T20:00:33.244Z,25.50
2023-02-09T20:03:01.987Z,24.13
2023-02-09T20:05:30.558Z,25.50
2023-02-09T20:08:00.433Z,25.90
2023-02-09T20:10:28.971Z,25.77
2023-02-09T20:12:57.656Z,25.08
2023-02-09T20:15:26.302Z,24.80
2023-02-09T20:17:54.976Z,26.30
2023-02-09T20:20:23.684Z,25.17
2023-02-09T20:22:52.589Z,24.20
2023-02-09T20:25:22.538Z,24.80
2023-02-09T20:27:51.948Z,24.47
2023-02-09T20:30:20.656Z,25.27
2023-02-09T20:32:49.157Z,26.37
2023-02-09T20:35:17.809Z,26.55
2023-02-09T20:37:46.252Z,25.58
2023-02-09T20:40:15.124Z,27.23
2023-02-09T20:43:02.751Z,25.47
2023-02-09T20:45:54.163Z,26.10
2023-02-09T20:48:22.853Z,25.97
2023-02-09T20:50:51.620Z,25.23
2023-02-09T20:53:20.061Z,26.90
2023-02-09T20:55:48.711Z,25.03
2023-02-09T20:58:19.268Z,24.10
2023-02-09T21:00:48.529Z,25.30
2023-02-09T21:03:17.646Z,24.15
2023-02-09T21:05:46.210Z,25.52
2023-02-09T21:08:14.757Z,23.60
2023-02-09T21:10:43.256Z,24.70
2023-02-09T21:13:12.022Z,23.27
2023-02-09T21:15:42.833Z,26.23
2023-02-09T21:18:11.320Z,23.97
2023-02-09T21:20:40.154Z,25.45
2023-02-09T21:23:08.589Z,24.30
2023-02-09T21:25:37.657Z,25.70
2023-02-09T21:28:06.311Z,26.13
2023-02-09T21:30:35.064Z,25.88
2023-02-09T21:33:04.962Z,26.02
2023-02-09T21:35:33.457Z,25.23
2023-02-09T21:38:01.861Z,26.67
2023-02-09T21:40:31.100Z,25.83
2023-02-09T21:43:00.101Z,24.50
2023-02-09T21:45:29.212Z,27.50
2023-02-09T21:47:59.703Z,25.17
2023-02-09T21:50:29.905Z,24.90
2023-02-09T21:52:59.448Z,25.98
2023-02-09T21:55:28.363Z,25.92
2023-02-09T21:57:57.086Z,24.75
2023-02-09T22:00:26.077Z,24.65
2023-02-09T22:02:55.538Z,27.13
2023-02-09T22:05:24.604Z,25.35
2023-02-09T22:07:54.519Z,24.95
2023-02-09T22:10:23.013Z,27.25
2023-02-09T22:12:52.069Z,22.85
2023-02-09T22:15:20.761Z,24.45
2023-02-09T22:17:50.732Z,22.95
2023-02-09T22:20:19.473Z,25.05
2023-02-09T22:22:49.577Z,25.38
2023-02-09T22:25:19.911Z,24.30
2023-02-09T22:27:48.420Z,25.52
2023-02-09T22:30:17.291Z,24.25
2023-02-09T22:32:45.745Z,22.83
2023-02-09T22:35:14.314Z,24.70
2023-02-09T22:37:42.840Z,26.52
2023-02-09T22:40:12.060Z,25.08
2023-02-09T22:42:42.466Z,25.70
2023-02-09T22:45:11.263Z,26.25
2023-02-09T22:47:40.309Z,26.88
2023-02-09T22:50:09.463Z,26.25
2023-02-09T22:52:37.991Z,26.20
2023-02-09T22:55:07.101Z,24.63
2023-02-09T22:57:35.686Z,25.75
2023-02-09T23:00:07.645Z,25.80
2023-02-09T23:02:36.321Z,24.05
2023-02-09T23:05:05.023Z,23.08
2023-02-09T23:07:33.611Z,25.00
2023-02-09T23:10:02.145Z,23.35
2023-02-09T23:12:30.643Z,23.55
2023-02-09T23:14:59.106Z,24.30
2023-02-09T23:17:29.017Z,24.00
2023-02-09T23:19:57.496Z,22.55
2023-02-09T23:22:26.010Z,23.55
2023-02-09T23:24:55.062Z,24.08
2023-02-09T23:27:23.575Z,22.75
2023-02-09T23:29:52.016Z,23.30
2023-02-09T23:32:20.550Z,22.55
2023-02-09T23:34:50.374Z,23.33
2023-02-09T23:37:34.863Z,24.25
2023-02-09T23:40:05.761Z,23.95
2023-02-09T23:42:34.298Z,21.15
2023-02-09T23:45:02.691Z,20.60
2023-02-09T23:47:31.262Z,23.27
2023-02-09T23:50:01.209Z,21.70
2023-02-09T23:52:30.312Z,20.48
2023-02-09T23:54:58.711Z,21.88
2023-02-09T23:57:27.246Z,21.33
2023-02-09T23:59:55.713Z,21.35
